Blue Oak Ranch Reserve, California Weather observations

Data are for 10 minute period ending at time listed.
 Day   Time   Solar   Ave.   Ave.  Ave.  Vector  Max.   Baro.   Total    
  of    of     Rad.   Air    Rel.  Wind   Wind   Wind  Press.  Precip.   
Year   Day            Temp.  Hum.  Speed  Dir.   Gust                    
2014   (PST)  Kw/m2    F      %     mph   deg.    mph    mb.     in.     
-------------------------------------------------------------------------
 351   14:00   0.19   50.8    71    2.6   223     6.2   948.6    0.00 
 351   14:10   0.41   51.6    71    3.1   200     5.6   948.4    0.00 
 351   14:20   0.39   52.4    68    5.1   227     9.7   948.2    0.00 
 351   14:30   0.29   52.4    65    4.7   234     8.6   948.2    0.00 
 351   14:40   0.11   51.7    66    4.0   252     7.2   948.1    0.00 
 351   14:50   0.09   50.4    68    3.2   246     5.7   948.1    0.00 
 351   15:00   0.10   50.3    69    2.7   224     5.3   948.3    0.00 
 351   15:10   0.09   50.3    69    3.2   196     6.1   948.5    0.00 
 351   15:20   0.07   50.1    69    2.6   184     5.4   948.6    0.00 
 351   15:30   0.06   50.1    70    1.7   202     3.8   948.7    0.00 
 351   15:40   0.03   49.8    74    2.7   176     6.9   948.8    0.00 
 351   15:50   0.04   49.0    78    4.3   159     7.0   948.9    0.00 
 351   16:00   0.04   48.6    78    4.0   140     9.0   948.9    0.00 
 351   16:10   0.05   48.5    78    2.6   135     4.8   948.9    0.00 
 351   16:20   0.03   48.4    79    3.2   164     7.3   949.1    0.00 
 351   16:30   0.01   48.1    82    2.9   158     6.1   949.2    0.00 
 351   16:40   0.01   47.9    86    3.3   158     5.6   949.3    0.00 
 351   16:50   0.01   47.6    87    2.9   154     5.6   949.4    0.00 
 351   17:00   0.00   47.4    88    3.4   150     6.3   949.5    0.00 
 351   17:10   0.00   47.3    90    2.7   153     5.6   949.5    0.00 
 351   17:20   0.00   47.0    91    3.2   136     5.9   949.5    0.03 
 351   17:30   0.00   46.9    92    2.8   136     6.4   949.5    0.01 
 351   17:40   0.00   46.7    92    0.9   170     3.3   949.5    0.02 
 351   17:50   0.00   46.7    93    2.6   196     5.8   949.5    0.01 
 351   18:00   0.00   46.6    94    1.7   206     3.6   949.6    0.03 
 351   18:10   0.00   46.5    94    1.3   182     3.1   949.7    0.00 
 351   18:20   0.00   46.4    94    1.3   164     2.9   949.9    0.00 
 351   18:30   0.00   46.3    94    1.1   119     4.2   949.8    0.00 
 351   18:40   0.00   46.3    95    0.7    99     3.2   950.0    0.01 
 351   18:50   0.00   46.0    94    1.8    90     3.1   949.9    0.01 
 351   19:00   0.00   45.7    94    2.1   113     5.0   949.8    0.02 
 351   19:10   0.00   45.7    94    2.5   133     6.0   949.8    0.02 
 351   19:20   0.00   45.9    94    2.0   190     5.8   950.0    0.01 
 351   19:30   0.00   45.8    95    4.6   164     9.1   950.3    0.00 
 351   19:40   0.00   45.5    95    3.9   129     7.7   950.2    0.02 
 351   19:50   0.00   45.3    95    5.1   145    10.1   950.2    0.00 
 351   20:00   0.00   45.1    95    5.0   132     9.2   950.2    0.01 
 351   20:10   0.00   44.9    94    4.8   121    10.7   950.2    0.00 
 351   20:20   0.00   44.5    91    4.0   126    10.4   950.2    0.01 
 351   20:30   0.00   44.5    90    3.7   119    13.0   950.3    0.00 
 351   20:40   0.00   44.4    90    3.7   133     7.5   950.4    0.00 
 351   20:50   0.00   44.3    90    2.6    99     5.8   950.5    0.00 
 351   21:00   0.00   44.1    90    4.0    94     8.8   950.4    0.01 
 351   21:10   0.00   44.3    88    3.7   117     7.4   950.3    0.00 
 351   21:20   0.00   44.4    89    4.2   102     8.8   950.1    0.01 
 351   21:30   0.00   44.5    90    3.8   112     8.3   950.0    0.00 
 351   21:40   0.00   44.7    89    3.2    98     9.0   950.0    0.00 
 351   21:50   0.00   45.2    88    4.1   101     8.1   950.1    0.00 
 351   22:00   0.00   45.5    86    2.3   105     6.9   950.2    0.00 
 351   22:10   0.00   45.5    87    3.2    98     7.9   950.3    0.00 
 351   22:20   0.00   45.5    87    3.3    98     7.8   950.3    0.00 
 351   22:30   0.00   45.5    86    3.6   100     8.3   950.2    0.00 
 351   22:40   0.00   45.7    86    3.2   104     8.8   950.1    0.00 
 351   22:50   0.00   45.8    85    4.0   120    13.8   950.1    0.00 
 351   23:00   0.00   45.9    84    4.5   124    14.1   950.0    0.00 
 351   23:10   0.00   45.9    85    2.3   109     4.2   950.1    0.00 
 351   23:20   0.00   45.9    85    2.3   107     5.4   950.1    0.01 
 351   23:30   0.00   45.6    88    2.4    83     4.5   950.1    0.00 
 351   23:40   0.00   45.1    91    2.0   109     4.4   950.2    0.00 
 351   23:50   0.00   45.0    92    2.2   136     3.9   950.2    0.00 
 352    0:00   0.00   45.0    92    2.1    99     4.9   950.1    0.00 
 352    0:10   0.00   45.1    92    3.1    93     7.0   950.1    0.01 
 352    0:20   0.00   45.3    91    2.8   111     5.5   950.1    0.00 
 352    0:30   0.00   45.3    91    2.7   119     4.2   950.0    0.00 
 352    0:40   0.00   45.1    92    2.4   119     5.7   949.9    0.00 
 352    0:50   0.00   45.2    92    1.8   116     3.3   949.8    0.00 
 352    1:00   0.00   45.1    93    3.6   146     7.6   949.9    0.00 
 352    1:10   0.00   45.0    93    3.4   116     5.7   949.9    0.00 
 352    1:20   0.00   45.0    93    1.9   121     3.4   949.9    0.00 
 352    1:30   0.00   45.0    93    2.7   147     5.8   949.9    0.00 
 352    1:40   0.00   45.0    94    2.6   119     5.1   950.0    0.00 
 352    1:50   0.00   45.0    94    3.2   124     5.5   950.0    0.00 
 352    2:00   0.00   45.2    94    2.2   115     4.6   950.1    0.00 
 352    2:10   0.00   45.2    94    2.6   127     4.6   950.1    0.00 
 352    2:20   0.00   45.3    94    1.4   118     2.9   950.3    0.00 
 352    2:30   0.00   45.3    94    2.1   108     3.6   950.3    0.00 
 352    2:40   0.00   45.2    94    1.3   123     2.9   950.3    0.00 
 352    2:50   0.00   45.2    94    2.6   139     3.7   950.4    0.00 
 352    3:00   0.00   45.2    94    3.0   133     4.5   950.4    0.00 
 352    3:10   0.00   45.3    94    1.9   119     3.8   950.4    0.00 
 352    3:20   0.00   45.4    94    2.7   137     4.7   950.3    0.00 
 352    3:30   0.00   45.4    94    2.0   125     3.7   950.3    0.00 
 352    3:40   0.00   45.4    94    2.6   139     4.4   950.1    0.00 
 352    3:50   0.00   45.2    94    2.1   106     3.7   950.1    0.00 
 352    4:00   0.00   45.1    94    1.6    98     3.1   950.1    0.00 
 352    4:10   0.00   45.1    94    1.5   144     2.5   950.2    0.00 
 352    4:20   0.00   45.1    94    2.8   137     5.1   950.4    0.00 
 352    4:30   0.00   45.1    94    2.5   142     4.0   950.4    0.00 
 352    4:40   0.00   45.0    94    1.9   114     4.2   950.3    0.00 
 352    4:50   0.00   45.0    94    2.0   122     3.6   950.3    0.00 
 352    5:00   0.00   45.0    95    2.6   146     4.1   950.3    0.00 
 352    5:10   0.00   45.0    95    2.9   152     4.5   950.4    0.00 
 352    5:20   0.00   45.0    95    3.6   145     6.4   950.6    0.00 
 352    5:30   0.00   45.0    95    1.6   129     4.2   950.7    0.00 
 352    5:40   0.00   45.0    95    1.5   119     2.3   950.9    0.00 
 352    5:50   0.00   45.0    95    1.2   104     2.3   951.0    0.00 
 352    6:00   0.00   45.0    95    1.7   140     3.5   951.1    0.00 
 352    6:10   0.00   45.0    95    3.0   149     4.8   951.1    0.00 
 352    6:20   0.00   44.7    95    3.3   155     5.9   951.2    0.00 
 352    6:30   0.00   44.5    95    3.7   153     5.8   951.4    0.00 
 352    6:40   0.00   44.5    96    1.2   115     3.2   951.6    0.00 
 352    6:50   0.00   44.6    96    0.3    98     1.7   951.7    0.00 
 352    7:00   0.00   44.5    96    2.5   139     4.5   951.7    0.00 
 352    7:10   0.01   44.2    96    1.9   123     3.4   951.7    0.00 
 352    7:20   0.01   44.0    96    1.1    97     1.9   951.7    0.00 
 352    7:30   0.03   43.9    96    1.2    93     2.5   951.7    0.00 
 352    7:40   0.04   43.8    96    1.2   153     1.8   951.8    0.00 
 352    7:50   0.06   44.2    96    2.2   128     4.2   951.8    0.00 
 352    8:00   0.06   44.4    96    1.7   119     3.7   951.9    0.00 
 352    8:10   0.06   44.6    96    1.1   112     3.3   952.0    0.00 
 352    8:20   0.07   44.6    96    0.9   102     2.6   952.0    0.00 
 352    8:30   0.07   44.8    96    1.1   134     3.0   952.2    0.00 
 352    8:40   0.09   45.0    96    0.9   110     2.9   952.2    0.00 
 352    8:50   0.16   46.2    96    1.1   157     2.5   952.4    0.00 
 352    9:00   0.20   46.7    95    2.9   140     5.0   952.5    0.00 
 352    9:10   0.20   46.5    94    4.3   152     6.3   952.6    0.00 
 352    9:20   0.24   47.1    94    2.8   148     4.5   952.7    0.00 
 352    9:30   0.20   47.8    93    3.0   156     5.0   952.7    0.00 
 352    9:40   0.35   48.6    91    4.5   152     7.1   952.8    0.00 
 352    9:50   0.24   48.9    89    5.1   153     7.7   952.9    0.00 
 352   10:00   0.27   48.5    90    4.6   150     6.7   953.0    0.00 
 352   10:10   0.34   49.9    88    4.0   156     8.1   952.9    0.00 
 352   10:20   0.41   51.1    85    3.5   151     6.9   952.9    0.00 
 352   10:30   0.41   52.7    81    2.6   192     5.1   952.9    0.00 
 352   10:40   0.43   53.1    80    3.3   162     5.6   953.0    0.00 
 352   10:50   0.45   53.3    79    3.7   149     6.8   953.0    0.00 
 352   11:00   0.47   53.0    79    4.0   146     6.2   953.0    0.00 
 352   11:10   0.50   54.6    75    2.6   154     6.1   953.0    0.00 
 352   11:20   0.49   55.8    70    2.9   188     5.1   953.1    0.00 
 352   11:30   0.34   56.2    69    2.1   258     4.5   953.2    0.00 
 352   11:40   0.36   55.9    71    1.8   204     4.4   953.1    0.00 
 352   11:50   0.44   55.6    73    4.8   243     7.2   952.9    0.00 
 352   12:00   0.26   54.7    74    4.1   236     7.1   952.8    0.00 
 352   12:10   0.22   54.3    76    4.2   243     6.9   952.6    0.00 
 352   12:20   0.54   54.2    77    5.8   274     9.1   952.5    0.00 
 352   12:30   0.42   55.4    73    3.4   202     6.3   952.4    0.00 
 352   12:40   0.35   55.3    72    3.5   214     7.3   952.3    0.00 
 352   12:50   0.19   54.7    73    2.4   214     4.8   952.1    0.00 
 352   13:00   0.22   54.8    74    3.1   249     5.3   952.0    0.00 
 352   13:10   0.31   55.2    73    2.0   185     4.7   951.8    0.00 
 352   13:20   0.37   55.4    72    3.5   151     6.4   951.8    0.00 
 352   13:30   0.30   54.9    72    3.2   154     6.9   951.8    0.00 
 352   13:40   0.12   54.4    73    2.6   156     6.1   951.8    0.00 
 352   13:50   0.22   54.4    74    2.3   239     8.0   951.7    0.00 

Return to Blue Oak Ranch Reserve graphs page.


Western Regional Climate Center,wrcc@dri.edu